createdAt,value
2019-02-28T00:00:06.766Z,41.03
2019-02-28T00:02:40.036Z,41.40
2019-02-28T00:05:11.165Z,40.97
2019-02-28T00:07:42.141Z,41.20
2019-02-28T00:10:13.763Z,40.94
2019-02-28T00:12:45.203Z,40.91
2019-02-28T00:15:17.475Z,41.18
2019-02-28T00:17:48.602Z,40.96
2019-02-28T00:20:19.658Z,40.92
2019-02-28T00:22:50.681Z,41.05
2019-02-28T00:25:21.760Z,41.26
2019-02-28T00:27:53.440Z,41.24
2019-02-28T00:30:25.813Z,41.52
2019-02-28T00:32:59.322Z,41.35
2019-02-28T00:35:30.045Z,41.50
2019-02-28T00:38:01.728Z,41.84
2019-02-28T00:40:32.807Z,41.85
2019-02-28T00:43:03.823Z,42.24
2019-02-28T00:45:37.203Z,42.15
2019-02-28T00:48:08.039Z,42.10
2019-02-28T00:50:39.268Z,42.02
2019-02-28T00:53:10.312Z,41.98
2019-02-28T00:55:41.366Z,42.04
2019-02-28T00:58:12.409Z,41.94
2019-02-28T01:00:43.850Z,42.21
2019-02-28T01:03:14.901Z,41.94
2019-02-28T01:05:45.978Z,42.14
2019-02-28T01:08:19.146Z,42.06
2019-02-28T01:10:49.700Z,41.87
2019-02-28T01:13:20.697Z,42.26
2019-02-28T01:15:51.897Z,42.40
2019-02-28T01:18:22.864Z,42.54
2019-02-28T01:20:53.991Z,42.20
2019-02-28T01:23:29.315Z,42.19
2019-02-28T01:25:59.151Z,42.52
2019-02-28T01:28:30.114Z,42.63
2019-02-28T01:31:02.098Z,42.90
2019-02-28T01:33:34.049Z,43.01
2019-02-28T01:36:05.098Z,42.99
2019-02-28T01:38:36.066Z,43.02
2019-02-28T01:41:08.325Z,43.16
2019-02-28T01:43:40.157Z,43.74
2019-02-28T01:46:11.238Z,43.94
2019-02-28T01:48:42.237Z,44.22
2019-02-28T01:51:13.489Z,44.50
2019-02-28T01:53:44.835Z,44.56
2019-02-28T01:56:16.116Z,44.36
2019-02-28T01:58:47.657Z,44.55
2019-02-28T02:01:19.844Z,44.70
2019-02-28T02:03:51.064Z,45.09
2019-02-28T02:06:22.594Z,44.97
2019-02-28T02:08:56.539Z,44.66
2019-02-28T02:11:27.543Z,45.00
2019-02-28T02:13:58.805Z,45.10
2019-02-28T02:16:29.793Z,44.89
2019-02-28T02:19:01.900Z,44.88
2019-02-28T02:21:35.031Z,44.82
2019-02-28T02:24:06.303Z,44.29
2019-02-28T02:26:37.307Z,44.00
2019-02-28T02:29:08.341Z,44.73
2019-02-28T02:31:39.821Z,44.58
2019-02-28T02:34:11.052Z,44.87
2019-02-28T02:36:44.751Z,44.90
2019-02-28T02:39:17.557Z,45.04
2019-02-28T02:41:48.966Z,45.88
2019-02-28T02:44:20.123Z,45.38
2019-02-28T02:46:55.448Z,45.54
2019-02-28T02:49:24.116Z,45.84
2019-02-28T02:51:56.717Z,46.04
2019-02-28T02:54:28.138Z,46.42
2019-02-28T02:56:59.231Z,46.36
2019-02-28T02:59:37.538Z,46.46
2019-02-28T03:02:02.906Z,46.77
2019-02-28T03:04:33.991Z,46.63
2019-02-28T03:07:05.065Z,46.91
2019-02-28T03:09:36.369Z,46.97
2019-02-28T03:12:07.805Z,46.64
2019-02-28T03:14:38.859Z,46.88
2019-02-28T03:17:12.040Z,46.88
2019-02-28T03:19:42.789Z,47.02
2019-02-28T03:22:14.189Z,47.04
2019-02-28T03:24:50.475Z,47.16
2019-02-28T03:27:19.999Z,47.26
2019-02-28T03:29:51.370Z,47.61
2019-02-28T03:32:22.446Z,47.25
2019-02-28T03:34:58.228Z,47.11
2019-02-28T03:37:32.751Z,47.05
2019-02-28T03:40:04.423Z,47.44
2019-02-28T03:42:32.290Z,47.57
2019-02-28T03:45:03.540Z,47.31
2019-02-28T03:47:34.595Z,47.29
2019-02-28T03:50:06.158Z,47.19
2019-02-28T03:52:42.118Z,46.85
2019-02-28T03:55:10.111Z,47.34
2019-02-28T03:57:41.399Z,47.72
2019-02-28T04:00:17.893Z,47.62
2019-02-28T04:02:56.865Z,47.71
2019-02-28T04:05:26.678Z,47.54
2019-02-28T04:07:56.014Z,47.94
2019-02-28T04:10:27.129Z,47.74
2019-02-28T04:12:58.396Z,47.92
2019-02-28T04:15:29.577Z,47.91
2019-02-28T04:18:06.661Z,48.05
2019-02-28T04:20:37.463Z,48.12
2019-02-28T04:23:07.407Z,47.97
2019-02-28T04:25:38.396Z,47.67
2019-02-28T04:28:09.369Z,47.73
2019-02-28T04:30:43.867Z,47.79
2019-02-28T04:33:13.480Z,47.83
2019-02-28T04:35:44.492Z,47.75
2019-02-28T04:38:20.441Z,47.88
2019-02-28T04:40:48.867Z,47.80
2019-02-28T04:43:20.095Z,47.92
2019-02-28T04:45:51.158Z,47.77
2019-02-28T04:48:22.517Z,47.80
2019-02-28T04:50:53.550Z,47.91
2019-02-28T04:53:24.528Z,48.03
2019-02-28T04:55:55.556Z,47.91
2019-02-28T04:58:27.848Z,48.26
2019-02-28T05:00:58.831Z,48.30
2019-02-28T05:03:29.952Z,48.15
2019-02-28T05:06:02.173Z,48.13
2019-02-28T05:08:38.655Z,48.35
2019-02-28T05:11:06.193Z,48.68
2019-02-28T05:13:37.171Z,48.82
2019-02-28T05:16:09.400Z,48.65
2019-02-28T05:18:41.237Z,48.73
2019-02-28T05:21:12.250Z,48.34
2019-02-28T05:23:43.835Z,48.75
2019-02-28T05:26:15.212Z,48.71
2019-02-28T05:28:46.672Z,48.48
2019-02-28T05:31:17.667Z,48.47
2019-02-28T05:33:48.975Z,48.42
2019-02-28T05:36:20.263Z,47.88
2019-02-28T05:38:53.546Z,47.97
2019-02-28T05:41:24.317Z,47.90
2019-02-28T05:43:55.651Z,47.69
2019-02-28T05:46:28.682Z,47.59
2019-02-28T05:49:00.501Z,47.24
2019-02-28T05:51:31.882Z,47.56
2019-02-28T05:54:04.432Z,47.21
2019-02-28T05:56:36.193Z,47.45
2019-02-28T05:59:07.232Z,47.53
2019-02-28T06:01:38.672Z,47.58
2019-02-28T06:04:09.649Z,47.74
2019-02-28T06:06:41.165Z,47.45
2019-02-28T06:09:13.690Z,47.69
2019-02-28T06:11:45.352Z,47.54
2019-02-28T06:14:16.965Z,47.43
2019-02-28T06:16:48.330Z,47.69
2019-02-28T06:19:20.320Z,47.47
2019-02-28T06:21:53.007Z,47.59
2019-02-28T06:24:24.437Z,47.74
2019-02-28T06:26:56.970Z,47.75
2019-02-28T06:29:28.033Z,48.02
2019-02-28T06:31:59.243Z,48.28
2019-02-28T06:34:30.250Z,48.01
2019-02-28T06:37:03.617Z,48.00
2019-02-28T06:39:37.607Z,48.06
2019-02-28T06:42:11.808Z,48.20
2019-02-28T06:44:43.497Z,48.39
2019-02-28T06:47:14.789Z,48.49
2019-02-28T06:49:45.890Z,48.38
2019-02-28T06:52:17.133Z,48.75
2019-02-28T06:54:48.345Z,48.30
2019-02-28T06:57:19.441Z,48.35
2019-02-28T06:59:50.857Z,48.10
2019-02-28T07:02:22.110Z,48.16
2019-02-28T07:04:53.469Z,48.30
2019-02-28T07:07:24.820Z,48.21
2019-02-28T07:09:56.146Z,48.27
2019-02-28T07:12:29.950Z,47.28
2019-02-28T07:15:02.655Z,47.62
2019-02-28T07:17:34.597Z,47.44
2019-02-28T07:20:09.679Z,47.66
2019-02-28T07:22:42.691Z,47.12
2019-02-28T07:25:14.078Z,46.97
2019-02-28T07:27:45.208Z,47.03
2019-02-28T07:30:18.451Z,47.13
2019-02-28T07:32:49.444Z,46.99
2019-02-28T07:35:20.717Z,47.40
2019-02-28T07:37:54.307Z,47.17
2019-02-28T07:40:24.625Z,46.71
2019-02-28T07:42:55.638Z,47.01
2019-02-28T07:45:29.632Z,46.94
2019-02-28T07:47:59.816Z,46.83
2019-02-28T07:50:30.865Z,46.60
2019-02-28T07:53:05.599Z,46.29
2019-02-28T07:55:35.597Z,45.97
2019-02-28T07:58:06.738Z,45.30
2019-02-28T08:00:38.261Z,44.99
2019-02-28T08:03:11.334Z,44.80
2019-02-28T08:05:42.185Z,44.67
2019-02-28T08:08:13.553Z,44.69
2019-02-28T08:10:48.004Z,44.38
2019-02-28T08:13:17.311Z,43.27
2019-02-28T08:15:49.030Z,43.07
2019-02-28T08:18:20.501Z,42.87
2019-02-28T08:20:51.519Z,42.49
2019-02-28T08:23:22.546Z,42.70
2019-02-28T08:25:53.824Z,42.75
2019-02-28T08:28:29.545Z,42.36
2019-02-28T08:31:00.384Z,42.19
2019-02-28T08:33:31.382Z,42.09
2019-02-28T08:36:02.801Z,42.31
2019-02-28T08:38:34.449Z,41.50
2019-02-28T08:41:06.626Z,41.61
2019-02-28T08:43:38.606Z,41.70
2019-02-28T08:46:13.030Z,41.78
2019-02-28T08:48:43.275Z,41.40
2019-02-28T08:51:14.340Z,41.57
2019-02-28T08:53:50.953Z,41.60
2019-02-28T08:56:18.014Z,41.61
2019-02-28T08:58:49.372Z,40.06
2019-02-28T09:01:20.449Z,40.07
2019-02-28T09:03:51.519Z,40.45
2019-02-28T09:06:22.811Z,40.20
2019-02-28T09:08:56.629Z,39.97
2019-02-28T09:11:26.577Z,41.22
2019-02-28T09:13:57.569Z,40.77
2019-02-28T09:16:28.585Z,40.88
2019-02-28T09:19:00.950Z,41.57
2019-02-28T09:21:32.282Z,41.36
2019-02-28T09:24:03.263Z,41.18
2019-02-28T09:26:34.241Z,42.14
2019-02-28T09:29:05.761Z,40.08
2019-02-28T09:31:39.179Z,39.96
2019-02-28T09:34:09.858Z,39.71
2019-02-28T09:36:41.136Z,39.76
2019-02-28T09:39:12.147Z,38.41
2019-02-28T09:41:43.129Z,37.39
2019-02-28T09:44:14.387Z,39.14
2019-02-28T09:46:47.453Z,38.39
2019-02-28T09:49:18.583Z,38.89
2019-02-28T09:51:49.566Z,38.10
2019-02-28T09:54:21.429Z,38.26
2019-02-28T09:56:53.843Z,37.68
2019-02-28T09:59:25.335Z,37.68
2019-02-28T10:02:01.308Z,37.63
2019-02-28T10:04:30.494Z,38.06
2019-02-28T10:07:02.243Z,38.33
2019-02-28T10:09:33.231Z,38.87
2019-02-28T10:12:07.789Z,37.46
2019-02-28T10:14:37.300Z,37.48
2019-02-28T10:17:08.399Z,39.00
2019-02-28T10:19:45.556Z,37.91
2019-02-28T10:22:12.902Z,37.87
2019-02-28T10:24:45.532Z,37.81
2019-02-28T10:27:16.505Z,37.50
2019-02-28T10:29:47.512Z,37.73
2019-02-28T10:32:18.588Z,36.83
2019-02-28T10:34:49.883Z,37.50
2019-02-28T10:37:22.836Z,36.75
2019-02-28T10:39:53.563Z,37.28
2019-02-28T10:42:24.953Z,38.40
2019-02-28T10:44:56.035Z,37.96
2019-02-28T10:47:29.644Z,38.17
2019-02-28T10:50:00.579Z,37.82
2019-02-28T10:52:31.852Z,37.77
2019-02-28T10:55:03.739Z,35.76
2019-02-28T10:57:37.221Z,36.75
2019-02-28T11:00:13.393Z,37.38
2019-02-28T11:02:46.093Z,37.20
2019-02-28T11:05:21.645Z,36.07
2019-02-28T11:07:53.709Z,36.13
2019-02-28T11:10:34.828Z,35.38
2019-02-28T11:13:04.037Z,36.88
2019-02-28T11:15:35.284Z,36.52
2019-02-28T11:18:09.540Z,35.81
2019-02-28T11:20:42.324Z,35.03
2019-02-28T11:23:15.654Z,33.90
2019-02-28T11:25:47.788Z,34.72
2019-02-28T11:28:19.412Z,34.24
2019-02-28T11:30:50.967Z,33.93
2019-02-28T11:33:22.887Z,33.38
2019-02-28T11:35:57.655Z,32.79
2019-02-28T11:38:27.026Z,33.53
2019-02-28T11:40:58.214Z,32.51
2019-02-28T11:43:29.453Z,32.13
2019-02-28T11:46:02.978Z,32.43
2019-02-28T11:48:34.096Z,32.63
2019-02-28T11:51:05.215Z,32.68
2019-02-28T11:53:39.322Z,33.47
2019-02-28T11:56:08.973Z,32.86
2019-02-28T11:58:40.603Z,33.56
2019-02-28T12:01:11.731Z,33.40
2019-02-28T12:03:43.040Z,32.16
2019-02-28T12:06:14.444Z,33.52
2019-02-28T12:08:46.478Z,33.33
2019-02-28T12:11:17.449Z,34.02
2019-02-28T12:13:51.586Z,33.43
2019-02-28T12:16:21.868Z,33.79
2019-02-28T12:18:54.295Z,33.10
2019-02-28T12:21:25.268Z,33.06
2019-02-28T12:23:57.308Z,34.08
2019-02-28T12:26:29.291Z,33.24
2019-02-28T12:29:00.287Z,32.33
2019-02-28T12:31:32.074Z,33.51
2019-02-28T12:34:05.185Z,31.95
2019-02-28T12:36:36.898Z,32.85
2019-02-28T12:39:09.433Z,33.66
2019-02-28T12:41:40.828Z,33.82
2019-02-28T12:44:12.356Z,32.51
2019-02-28T12:46:45.256Z,33.49
2019-02-28T12:49:21.790Z,32.37
2019-02-28T12:51:49.653Z,33.57
2019-02-28T12:54:20.643Z,33.41
2019-02-28T12:56:51.786Z,33.84
2019-02-28T12:59:22.857Z,34.52
2019-02-28T13:01:53.898Z,35.14
2019-02-28T13:04:25.012Z,35.19
2019-02-28T13:06:58.822Z,35.78
2019-02-28T13:09:30.234Z,35.37
2019-02-28T13:12:01.414Z,35.45
2019-02-28T13:14:32.562Z,33.98
2019-02-28T13:17:04.104Z,35.58
2019-02-28T13:19:35.498Z,35.63
2019-02-28T13:22:07.045Z,35.01
2019-02-28T13:24:38.080Z,36.57
2019-02-28T13:27:10.836Z,36.52
2019-02-28T13:29:42.106Z,36.30
2019-02-28T13:32:13.499Z,36.05
2019-02-28T13:34:45.210Z,36.47
2019-02-28T13:37:16.329Z,35.56
2019-02-28T13:39:47.595Z,35.27
2019-02-28T13:42:18.580Z,35.61
2019-02-28T13:44:50.380Z,34.77
2019-02-28T13:47:22.127Z,35.44
2019-02-28T13:49:53.396Z,34.69
2019-02-28T13:52:24.982Z,34.56
2019-02-28T13:54:56.042Z,35.26
2019-02-28T13:57:27.975Z,34.04
2019-02-28T13:59:59.133Z,34.28
2019-02-28T14:02:33.639Z,34.70
2019-02-28T14:05:04.217Z,35.25
2019-02-28T14:07:37.327Z,35.06
2019-02-28T14:10:11.611Z,34.06
2019-02-28T14:12:44.284Z,34.86
2019-02-28T14:15:18.459Z,35.75
2019-02-28T14:17:49.662Z,35.26
2019-02-28T14:20:20.835Z,35.20
2019-02-28T14:22:52.006Z,34.68
2019-02-28T14:25:23.828Z,34.35
2019-02-28T14:27:56.865Z,35.03
2019-02-28T14:30:28.000Z,34.08
2019-02-28T14:32:59.243Z,34.31
2019-02-28T14:35:33.892Z,33.70
2019-02-28T14:38:03.552Z,34.20
2019-02-28T14:40:34.908Z,34.33
2019-02-28T14:43:06.049Z,35.39
2019-02-28T14:45:39.176Z,35.02
2019-02-28T14:48:10.719Z,35.73
2019-02-28T14:50:41.862Z,35.10
2019-02-28T14:53:14.267Z,35.02
2019-02-28T14:55:45.706Z,35.86
2019-02-28T14:58:16.812Z,35.81
2019-02-28T15:00:48.235Z,35.44
2019-02-28T15:03:19.910Z,36.48
2019-02-28T15:05:52.420Z,34.77
2019-02-28T15:08:23.939Z,35.58
2019-02-28T15:10:55.188Z,34.96
2019-02-28T15:13:26.485Z,35.44
2019-02-28T15:15:57.543Z,34.59
2019-02-28T15:18:29.169Z,34.99
2019-02-28T15:21:00.260Z,35.59
2019-02-28T15:23:34.201Z,34.79
2019-02-28T15:26:04.242Z,35.03
2019-02-28T15:28:35.250Z,35.19
2019-02-28T15:31:08.620Z,35.89
2019-02-28T15:33:39.412Z,36.15
2019-02-28T15:36:11.201Z,36.79
2019-02-28T15:38:44.548Z,37.22
2019-02-28T15:41:15.689Z,37.67
2019-02-28T15:43:47.158Z,37.86
2019-02-28T15:46:18.110Z,38.05
2019-02-28T15:48:49.171Z,37.67
2019-02-28T15:51:20.260Z,38.63
2019-02-28T15:53:51.593Z,39.35
2019-02-28T15:56:23.139Z,40.05
2019-02-28T15:58:54.478Z,39.93
2019-02-28T16:01:28.605Z,40.13
2019-02-28T16:03:58.716Z,40.17
2019-02-28T16:06:29.786Z,40.32
2019-02-28T16:09:00.848Z,40.82
2019-02-28T16:11:33.613Z,41.01
2019-02-28T16:14:04.675Z,41.46
2019-02-28T16:16:35.850Z,42.64
2019-02-28T16:19:07.370Z,42.76
2019-02-28T16:21:40.918Z,43.17
2019-02-28T16:24:12.526Z,43.31
2019-02-28T16:26:43.667Z,43.13
2019-02-28T16:29:20.388Z,42.48
2019-02-28T16:31:48.391Z,42.47
2019-02-28T16:34:19.712Z,41.72
2019-02-28T16:36:50.783Z,41.96
2019-02-28T16:39:21.911Z,41.85
2019-02-28T16:41:53.079Z,41.69
2019-02-28T16:44:24.113Z,41.59
2019-02-28T16:46:55.799Z,42.90
2019-02-28T16:49:27.350Z,42.66
2019-02-28T16:51:58.462Z,42.10
2019-02-28T16:54:29.696Z,42.24
2019-02-28T16:57:00.682Z,42.30
2019-02-28T16:59:32.510Z,42.15
2019-02-28T17:02:04.307Z,42.15
2019-02-28T17:04:35.567Z,42.57
2019-02-28T17:07:09.566Z,42.55
2019-02-28T17:09:42.170Z,42.24
2019-02-28T17:12:50.529Z,41.74
2019-02-28T17:15:28.519Z,42.53
2019-02-28T17:18:03.467Z,42.52
2019-02-28T17:20:34.549Z,42.32
2019-02-28T17:23:05.831Z,42.16
2019-02-28T17:25:36.970Z,42.18
2019-02-28T17:28:16.160Z,42.31
2019-02-28T17:30:59.551Z,42.86
2019-02-28T17:33:30.710Z,42.84
2019-02-28T17:36:01.813Z,43.02
2019-02-28T17:38:37.289Z,43.65
2019-02-28T17:41:06.083Z,44.02
2019-02-28T17:43:39.776Z,44.71
2019-02-28T17:46:12.176Z,45.21
2019-02-28T17:49:40.356Z,44.93
2019-02-28T17:52:20.617Z,44.96
2019-02-28T17:55:36.207Z,44.71
2019-02-28T17:58:18.073Z,45.00
2019-02-28T18:01:50.240Z,46.04
2019-02-28T18:05:06.324Z,46.62
2019-02-28T18:08:13.224Z,47.45
2019-02-28T18:11:48.734Z,47.78
2019-02-28T18:15:22.198Z,48.63
2019-02-28T18:19:03.769Z,48.63
2019-02-28T18:22:03.897Z,49.71
2019-02-28T18:25:23.392Z,49.52
2019-02-28T18:28:36.022Z,49.19
2019-02-28T18:31:32.892Z,49.61
2019-02-28T18:34:08.978Z,49.86
2019-02-28T18:36:43.102Z,50.14
2019-02-28T18:39:13.865Z,50.71
2019-02-28T18:41:45.228Z,50.59
2019-02-28T18:44:16.441Z,50.41
2019-02-28T18:46:48.927Z,51.07
2019-02-28T18:49:20.072Z,51.37
2019-02-28T18:51:51.476Z,50.76
2019-02-28T18:54:22.852Z,50.00
2019-02-28T18:56:54.377Z,50.08
2019-02-28T18:59:25.482Z,50.36
2019-02-28T19:01:56.622Z,50.13
2019-02-28T19:04:27.649Z,50.60
2019-02-28T19:06:59.039Z,50.40
2019-02-28T19:09:30.163Z,50.33
2019-02-28T19:12:01.316Z,50.99
2019-02-28T19:14:32.642Z,50.89
2019-02-28T19:17:04.264Z,51.61
2019-02-28T19:19:35.609Z,51.57
2019-02-28T19:22:06.717Z,51.66
2019-02-28T19:24:37.987Z,52.08
2019-02-28T19:27:36.541Z,52.59
2019-02-28T19:30:13.958Z,52.41
2019-02-28T19:32:45.128Z,51.94
2019-02-28T19:35:17.511Z,52.23
2019-02-28T19:37:48.636Z,51.13
2019-02-28T19:40:20.036Z,51.69
2019-02-28T19:42:51.528Z,51.64
2019-02-28T19:45:23.209Z,51.27
2019-02-28T19:47:54.199Z,50.77
2019-02-28T19:50:25.223Z,50.46
2019-02-28T19:52:56.609Z,50.83
2019-02-28T19:55:27.718Z,50.66
2019-02-28T19:58:00.041Z,49.56
2019-02-28T20:00:31.160Z,50.41
2019-02-28T20:03:04.402Z,50.12
2019-02-28T20:05:35.604Z,49.39
2019-02-28T20:08:06.910Z,49.48
2019-02-28T20:10:38.615Z,49.63
2019-02-28T20:13:09.826Z,49.86
2019-02-28T20:15:42.146Z,49.63
2019-02-28T20:18:15.290Z,49.16
2019-02-28T20:20:46.439Z,48.91
2019-02-28T20:23:17.572Z,48.62
2019-02-28T20:25:48.610Z,48.63
2019-02-28T20:28:20.574Z,48.53
2019-02-28T20:30:51.670Z,48.76
2019-02-28T20:33:22.806Z,48.60
2019-02-28T20:35:54.246Z,48.80
2019-02-28T20:38:25.622Z,48.86
2019-02-28T20:40:56.804Z,48.62
2019-02-28T20:43:27.820Z,49.49
2019-02-28T20:45:59.656Z,49.46
2019-02-28T20:48:31.881Z,49.19
2019-02-28T20:51:03.387Z,48.94
2019-02-28T20:53:34.716Z,48.74
2019-02-28T20:56:05.900Z,49.02
2019-02-28T20:58:37.234Z,48.99
2019-02-28T21:01:08.768Z,49.13
2019-02-28T21:03:39.820Z,48.84
2019-02-28T21:06:10.851Z,48.75
2019-02-28T21:08:42.492Z,48.71
2019-02-28T21:11:13.849Z,48.76
2019-02-28T21:13:45.178Z,49.41
2019-02-28T21:16:16.271Z,49.31
2019-02-28T21:18:47.354Z,48.59
2019-02-28T21:21:18.339Z,48.75
2019-02-28T21:23:50.165Z,48.49
2019-02-28T21:26:21.735Z,48.10
2019-02-28T21:28:52.956Z,47.85
2019-02-28T21:31:24.444Z,47.74
2019-02-28T21:33:55.583Z,48.67
2019-02-28T21:36:26.944Z,49.09
2019-02-28T21:38:58.268Z,48.93
2019-02-28T21:41:29.261Z,49.11
2019-02-28T21:44:00.867Z,48.87
2019-02-28T21:46:32.010Z,48.71
2019-02-28T21:49:03.255Z,49.02
2019-02-28T21:51:34.243Z,49.14
2019-02-28T21:54:05.338Z,48.75
2019-02-28T21:56:36.462Z,49.15
2019-02-28T21:59:07.762Z,49.55
2019-02-28T22:01:38.775Z,49.49
2019-02-28T22:04:10.736Z,49.35
2019-02-28T22:06:42.066Z,49.06
2019-02-28T22:09:13.401Z,49.39
2019-02-28T22:11:46.208Z,49.22
2019-02-28T22:14:18.676Z,49.21
2019-02-28T22:16:49.987Z,49.31
2019-02-28T22:19:20.977Z,49.85
2019-02-28T22:21:51.983Z,51.01
2019-02-28T22:24:23.037Z,51.03
2019-02-28T22:26:54.035Z,50.98
2019-02-28T22:29:25.987Z,50.64
2019-02-28T22:32:06.626Z,51.16
2019-02-28T22:34:56.647Z,51.70
2019-02-28T22:37:28.097Z,52.44
2019-02-28T22:39:59.077Z,52.22
2019-02-28T22:42:30.069Z,52.15
2019-02-28T22:45:01.054Z,53.39
2019-02-28T22:47:32.111Z,53.05
2019-02-28T22:50:03.115Z,54.37
2019-02-28T22:52:34.179Z,54.22
2019-02-28T22:55:05.655Z,54.34
2019-02-28T22:57:37.006Z,54.87
2019-02-28T23:00:20.646Z,55.58
2019-02-28T23:02:53.819Z,55.53
2019-02-28T23:05:25.415Z,55.80
2019-02-28T23:07:57.333Z,57.03
2019-02-28T23:10:29.092Z,56.98
2019-02-28T23:13:00.164Z,57.24
2019-02-28T23:15:31.305Z,56.41
2019-02-28T23:18:02.299Z,57.03
2019-02-28T23:20:33.353Z,56.96
2019-02-28T23:23:05.529Z,57.25
2019-02-28T23:25:36.609Z,57.80
2019-02-28T23:28:23.810Z,57.18
2019-02-28T23:31:58.450Z,57.27
2019-02-28T23:34:37.656Z,58.50
2019-02-28T23:37:08.841Z,58.46
2019-02-28T23:39:40.082Z,59.72
2019-02-28T23:42:11.266Z,60.89
2019-02-28T23:44:42.450Z,61.22
2019-02-28T23:47:13.518Z,61.50
2019-02-28T23:49:44.594Z,61.81
2019-02-28T23:52:15.771Z,61.96
2019-02-28T23:54:47.016Z,62.08
2019-02-28T23:57:18.272Z,62.10
2019-02-28T23:59:49.507Z,62.92
